createdAt,value
2024-02-08T00:00:55.364Z,99352.16
2024-02-08T00:06:17.874Z,99357.98
2024-02-08T00:11:21.006Z,99366.77
2024-02-08T00:16:22.569Z,99370.77
2024-02-08T00:21:24.186Z,99377.44
2024-02-08T00:26:25.927Z,99382.20
2024-02-08T00:31:27.534Z,99381.30
2024-02-08T00:36:29.301Z,99379.77
2024-02-08T00:41:30.745Z,99377.08
2024-02-08T00:46:32.300Z,99384.43
2024-02-08T00:51:33.795Z,99388.03
2024-02-08T00:56:35.483Z,99384.18
2024-02-08T01:01:40.741Z,99381.22
2024-02-08T01:06:42.655Z,99376.18
2024-02-08T01:11:44.189Z,99378.75
2024-02-08T01:16:46.075Z,99385.22
2024-02-08T01:21:47.722Z,99398.08
2024-02-08T01:26:50.254Z,99396.95
2024-02-08T01:31:52.739Z,99402.36
2024-02-08T01:36:54.826Z,99397.21
2024-02-08T01:41:56.320Z,99392.52
2024-02-08T01:46:58.984Z,99397.08
2024-02-08T01:52:00.842Z,99398.08
2024-02-08T01:57:04.346Z,99400.13
2024-02-08T02:02:08.482Z,99398.86
2024-02-08T02:07:12.763Z,99400.35
2024-02-08T02:12:19.628Z,99398.58
2024-02-08T02:17:26.774Z,99397.71
2024-02-08T02:22:32.637Z,99399.39
2024-02-08T02:27:40.516Z,99403.63
2024-02-08T02:32:50.518Z,99402.83
2024-02-08T02:37:52.931Z,99405.78
2024-02-08T02:42:55.136Z,99410.21
2024-02-08T02:47:58.911Z,99411.34
2024-02-08T02:53:00.982Z,99409.66
2024-02-08T02:58:02.966Z,99408.65
2024-02-08T03:03:12.915Z,99411.02
2024-02-08T03:08:16.983Z,99409.20
2024-02-08T03:13:19.728Z,99416.25
2024-02-08T03:18:24.165Z,99416.85
2024-02-08T03:23:25.692Z,99409.23
2024-02-08T03:28:29.363Z,99408.60
2024-02-08T03:33:32.079Z,99409.67
2024-02-08T03:38:33.926Z,99408.05
2024-02-08T03:43:36.129Z,99402.38
2024-02-08T03:48:38.101Z,99403.48
2024-02-08T03:53:41.078Z,99405.73
2024-02-08T03:58:42.641Z,99401.58
2024-02-08T04:03:53.461Z,99393.09
2024-02-08T04:09:09.015Z,99397.88
2024-02-08T04:14:29.067Z,99395.34
2024-02-08T04:19:49.500Z,99395.21
2024-02-08T04:25:09.567Z,99397.63
2024-02-08T04:30:30.109Z,99399.13
2024-02-08T04:35:50.067Z,99398.40
2024-02-08T04:41:10.048Z,99402.90
2024-02-08T04:46:45.222Z,99398.73
2024-02-08T04:52:05.249Z,99397.71
2024-02-08T04:57:08.171Z,99400.60
2024-02-08T05:02:09.773Z,99402.67
2024-02-08T05:07:11.653Z,99397.62
2024-02-08T05:12:13.327Z,99396.63
2024-02-08T05:17:14.725Z,99395.91
2024-02-08T05:22:16.252Z,99397.39
2024-02-08T05:27:17.659Z,99394.34
2024-02-08T05:32:23.170Z,99398.11
2024-02-08T05:37:26.049Z,99399.60
2024-02-08T05:42:27.728Z,99399.80
2024-02-08T05:47:29.283Z,99405.86
2024-02-08T05:52:33.793Z,99402.80
2024-02-08T05:57:35.739Z,99402.17
2024-02-08T06:02:40.550Z,99403.61
2024-02-08T06:07:56.691Z,99405.56
2024-02-08T06:13:01.205Z,99417.04
2024-02-08T06:18:06.283Z,99417.17
2024-02-08T06:23:17.148Z,99424.64
2024-02-08T06:28:25.032Z,99418.44
2024-02-08T06:33:32.551Z,99420.17
2024-02-08T06:38:53.914Z,99420.42
2024-02-08T06:44:18.221Z,99409.02
2024-02-08T06:49:38.488Z,99411.11
2024-02-08T06:54:58.432Z,99406.60
2024-02-08T07:00:18.745Z,99397.79
2024-02-08T07:05:38.843Z,99393.83
2024-02-08T07:10:59.151Z,99402.39
2024-02-08T07:16:19.300Z,99403.23
2024-02-08T07:21:40.386Z,99403.91
2024-02-08T07:27:00.508Z,99395.28
2024-02-08T07:32:20.940Z,99391.64
2024-02-08T07:37:30.139Z,99387.34
2024-02-08T07:42:41.797Z,99384.45
2024-02-08T07:47:57.808Z,99381.98
2024-02-08T07:53:19.287Z,99385.70
2024-02-08T07:58:40.747Z,99378.25
2024-02-08T08:04:02.696Z,99364.75
2024-02-08T08:09:39.405Z,99362.02
2024-02-08T08:14:41.245Z,99363.88
2024-02-08T08:20:06.895Z,99375.30
2024-02-08T08:25:12.601Z,99375.73
2024-02-08T08:30:35.762Z,99370.56
2024-02-08T08:36:09.259Z,99366.98
2024-02-08T08:41:30.830Z,99369.04
2024-02-08T08:46:52.231Z,99361.97
2024-02-08T08:51:59.198Z,99364.99
2024-02-08T08:57:03.249Z,99356.04
2024-02-08T09:02:04.850Z,99355.88
2024-02-08T09:07:13.184Z,99349.23
2024-02-08T09:12:35.753Z,99341.69
2024-02-08T09:18:05.806Z,99343.11
2024-02-08T09:23:13.272Z,99332.33
2024-02-08T09:28:26.933Z,99325.21
2024-02-08T09:33:51.398Z,99321.13
2024-02-08T09:38:53.142Z,99311.70
2024-02-08T09:44:14.591Z,99301.80
2024-02-08T09:49:37.931Z,99300.27
2024-02-08T09:54:44.148Z,99295.55
2024-02-08T10:00:00.326Z,99291.98
2024-02-08T10:05:24.358Z,99296.55
2024-02-08T10:10:28.387Z,99294.70
2024-02-08T10:16:02.574Z,99292.38
2024-02-08T10:21:34.386Z,99282.08
2024-02-08T10:26:39.829Z,99271.86
2024-02-08T10:32:01.995Z,99277.61
2024-02-08T10:37:24.217Z,99284.03
2024-02-08T10:42:47.443Z,99277.86
2024-02-08T10:47:52.586Z,99272.00
2024-02-08T10:53:01.535Z,99265.93
2024-02-08T10:58:21.795Z,99265.20
2024-02-08T11:03:37.378Z,99260.98
2024-02-08T11:08:50.890Z,99254.13
2024-02-08T11:13:55.138Z,99250.69
2024-02-08T11:18:58.648Z,99256.98
2024-02-08T11:24:02.282Z,99254.29
2024-02-08T11:29:20.230Z,99247.10
2024-02-08T11:34:28.457Z,99244.70
2024-02-08T11:39:32.381Z,99237.22
2024-02-08T11:44:38.324Z,99227.88
2024-02-08T11:49:53.578Z,99227.91
2024-02-08T11:55:21.151Z,99226.33
2024-02-08T12:00:25.316Z,99230.03
2024-02-08T12:05:30.848Z,99232.89
2024-02-08T12:10:32.740Z,99230.65
2024-02-08T12:15:35.300Z,99225.27
2024-02-08T12:20:37.050Z,99218.45
2024-02-08T12:25:43.633Z,99209.48
2024-02-08T12:30:46.627Z,99209.27
2024-02-08T12:35:48.890Z,99207.09
2024-02-08T12:40:51.049Z,99201.63
2024-02-08T12:46:14.525Z,99191.09
2024-02-08T12:51:20.578Z,99196.91
2024-02-08T12:56:42.404Z,99199.35
2024-02-08T13:02:04.400Z,99201.77
2024-02-08T13:07:07.384Z,99202.35
2024-02-08T13:12:20.828Z,99201.38
2024-02-08T13:17:26.712Z,99199.01
2024-02-08T13:22:31.932Z,99196.43
2024-02-08T13:27:33.446Z,99196.66
2024-02-08T13:32:36.267Z,99199.55
2024-02-08T13:37:38.103Z,99202.31
2024-02-08T13:42:51.877Z,99199.14
2024-02-08T13:47:59.146Z,99197.90
2024-02-08T13:53:04.274Z,99206.23
2024-02-08T13:58:09.330Z,99210.39
2024-02-08T14:03:11.836Z,99211.63
2024-02-08T14:08:18.959Z,99217.73
2024-02-08T14:13:41.897Z,99218.30
2024-02-08T14:19:03.971Z,99216.27
2024-02-08T14:24:25.775Z,99205.11
2024-02-08T14:29:47.345Z,99206.96
2024-02-08T14:34:49.283Z,99212.88
2024-02-08T14:39:51.214Z,99215.38
2024-02-08T14:44:55.056Z,99217.32
2024-02-08T14:50:02.184Z,99218.07
2024-02-08T14:55:20.678Z,99223.32
2024-02-08T15:00:32.468Z,99221.73
2024-02-08T15:05:49.527Z,99218.69
2024-02-08T15:11:27.186Z,99219.55
2024-02-08T15:16:32.737Z,99221.55
2024-02-08T15:21:38.799Z,99222.88
2024-02-08T15:27:00.083Z,99223.38
2024-02-08T15:32:05.890Z,99226.96
2024-02-08T15:37:14.824Z,99227.14
2024-02-08T15:42:32.666Z,99222.46
2024-02-08T15:47:59.243Z,99230.22
2024-02-08T15:53:23.497Z,99234.60
2024-02-08T15:58:29.763Z,99239.25
2024-02-08T16:03:40.130Z,99238.84
2024-02-08T16:08:47.365Z,99243.30
2024-02-08T16:13:57.743Z,99242.27
2024-02-08T16:19:00.244Z,99240.91
2024-02-08T16:24:13.620Z,99244.36
2024-02-08T16:29:20.802Z,99249.23
2024-02-08T16:34:34.726Z,99245.23
2024-02-08T16:39:55.086Z,99239.94
2024-02-08T16:45:06.348Z,99236.33
2024-02-08T16:50:17.495Z,99236.19
2024-02-08T16:55:23.151Z,99227.61
2024-02-08T17:00:48.355Z,99221.86
2024-02-08T17:05:53.670Z,99220.83
2024-02-08T17:11:01.829Z,99214.31
2024-02-08T17:16:03.590Z,99210.42
2024-02-08T17:21:34.577Z,99204.36
2024-02-08T17:26:36.088Z,99197.95
2024-02-08T17:32:03.636Z,99199.98
2024-02-08T17:37:25.212Z,99200.28
2024-02-08T17:42:46.773Z,99206.34
2024-02-08T17:48:08.446Z,99205.71
2024-02-08T17:53:30.042Z,99203.21
2024-02-08T17:58:52.574Z,99201.50
2024-02-08T18:04:14.005Z,99201.61
2024-02-08T18:09:17.355Z,99201.05
2024-02-08T18:14:19.490Z,99195.76
2024-02-08T18:19:32.774Z,99204.59
2024-02-08T18:24:35.993Z,99210.84
2024-02-08T18:29:45.315Z,99213.23
2024-02-08T18:34:50.130Z,99219.23
2024-02-08T18:39:52.815Z,99215.40
2024-02-08T18:44:56.424Z,99217.39
2024-02-08T18:50:09.708Z,99216.64
2024-02-08T18:55:16.879Z,99218.92
2024-02-08T19:00:23.100Z,99222.74
2024-02-08T19:05:24.667Z,99219.51
2024-02-08T19:10:30.342Z,99220.73
2024-02-08T19:15:32.791Z,99221.73
2024-02-08T19:20:34.482Z,99223.20
2024-02-08T19:25:36.732Z,99226.77
2024-02-08T19:30:42.165Z,99226.95
2024-02-08T19:35:44.701Z,99230.77
2024-02-08T19:40:48.206Z,99235.34
2024-02-08T19:45:54.338Z,99233.80
2024-02-08T19:51:05.240Z,99230.48
2024-02-08T19:56:27.333Z,99228.26
2024-02-08T20:01:36.190Z,99230.46
2024-02-08T20:06:57.985Z,99230.25
2024-02-08T20:12:05.173Z,99233.58
2024-02-08T20:17:10.519Z,99236.17
2024-02-08T20:22:14.711Z,99239.97
2024-02-08T20:27:18.798Z,99251.62
2024-02-08T20:32:20.568Z,99258.54
2024-02-08T20:37:25.571Z,99265.29
2024-02-08T20:42:29.435Z,99263.34
2024-02-08T20:47:30.754Z,99268.29
2024-02-08T20:52:33.272Z,99268.27
2024-02-08T20:57:40.719Z,99274.73
2024-02-08T21:02:47.712Z,99275.10
2024-02-08T21:07:50.729Z,99284.88
2024-02-08T21:13:12.802Z,99288.88
2024-02-08T21:18:40.785Z,99289.05
2024-02-08T21:24:02.109Z,99292.45
2024-02-08T21:29:05.487Z,99296.23
2024-02-08T21:34:07.200Z,99294.30
2024-02-08T21:39:18.969Z,99294.67
2024-02-08T21:44:21.369Z,99293.42
2024-02-08T21:49:26.277Z,99285.38
2024-02-08T21:54:27.884Z,99283.54
2024-02-08T21:59:30.600Z,99275.91
2024-02-08T22:04:32.286Z,99274.79
2024-02-08T22:09:33.896Z,99272.17
2024-02-08T22:14:38.376Z,99274.48
2024-02-08T22:19:44.159Z,99275.35
2024-02-08T22:24:45.851Z,99277.88
2024-02-08T22:29:47.501Z,99279.02
2024-02-08T22:34:50.391Z,99281.98
2024-02-08T22:39:51.890Z,99281.66
2024-02-08T22:44:53.434Z,99286.51
2024-02-08T22:49:54.978Z,99288.77
2024-02-08T22:54:56.488Z,99293.33
2024-02-08T22:59:58.584Z,99301.89
2024-02-08T23:05:00.394Z,99300.04
2024-02-08T23:10:06.061Z,99301.90
2024-02-08T23:15:10.838Z,99302.64
2024-02-08T23:20:32.548Z,99303.13
2024-02-08T23:25:36.522Z,99301.70
2024-02-08T23:30:58.068Z,99308.83
2024-02-08T23:36:19.651Z,99318.18
2024-02-08T23:41:21.156Z,99315.65
2024-02-08T23:46:26.033Z,99311.38
2024-02-08T23:51:28.031Z,99314.30
2024-02-08T23:56:29.508Z,99315.25
